Time;durP1;ratioP1;P1;durP2;ratioP2;P2;SDS_P1;SDS_P2;PMS_P1;PMS_P2;Temp;Humidity;BMP_temperature;BMP_pressure;BME280_temperature;BME280_humidity;BME280_pressure;Samples;Min_cycle;Max_cycle;Signal;HPM_P1;HPM_P2
2022/03/29 00:01:34;;;;;;;23.50;13.43;;;;;;;7.84;86.84;101506.22;5234695;28;20521;-65
2022/03/29 00:04:05;;;;;;;26.40;13.23;;;;;;;7.80;86.70;101509.09;5239620;28;20634;-65
2022/03/29 00:06:36;;;;;;;30.50;14.43;;;;;;;7.68;87.13;101499.16;5238466;28;20102;-65
2022/03/29 00:09:08;;;;;;;27.45;14.98;;;;;;;7.63;87.75;101505.56;5237427;28;20510;-65
2022/03/29 00:11:39;;;;;;;31.90;16.00;;;;;;;7.60;87.96;101499.56;5245872;28;20479;-65
2022/03/29 00:14:12;;;;;;;31.10;15.30;;;;;;;7.55;88.52;101499.78;5246042;28;20044;-65
2022/03/29 00:16:43;;;;;;;27.15;15.18;;;;;;;7.49;88.84;101500.13;5244199;28;20494;-65
2022/03/29 00:19:15;;;;;;;27.27;15.00;;;;;;;7.44;89.29;101491.53;5240812;28;20033;-65
2022/03/29 00:21:46;;;;;;;25.30;15.43;;;;;;;7.48;89.25;101503.72;5240782;28;20499;-65
2022/03/29 00:24:17;;;;;;;24.55;15.25;;;;;;;7.41;89.92;101492.56;5243787;28;20036;-65
2022/03/29 00:26:49;;;;;;;26.00;15.52;;;;;;;7.40;90.07;101489.97;5242687;28;20167;-65
2022/03/29 00:29:20;;;;;;;27.10;16.02;;;;;;;7.39;91.02;101482.97;5243255;28;20507;-65
2022/03/29 00:31:51;;;;;;;26.73;16.50;;;;;;;7.46;91.14;101481.72;5241553;28;20514;-65
2022/03/29 00:34:23;;;;;;;26.27;16.10;;;;;;;7.43;91.41;101477.41;5241380;28;20098;-65
2022/03/29 00:36:54;;;;;;;30.40;16.33;;;;;;;7.39;90.65;101482.97;5242179;28;20115;-65
2022/03/29 00:39:25;;;;;;;30.88;16.63;;;;;;;7.38;91.00;101478.59;5251613;28;20037;-65
2022/03/29 00:41:57;;;;;;;29.45;17.42;;;;;;;7.36;91.24;101475.16;5245021;28;20029;-65
2022/03/29 00:44:33;;;;;;;27.63;15.95;;;;;;;7.34;91.47;101467.28;5244818;28;20550;-65
2022/03/29 00:47:05;;;;;;;31.25;16.98;;;;;;;7.32;92.26;101469.16;5242194;28;20044;-65
2022/03/29 00:49:36;;;;;;;31.90;18.10;;;;;;;7.26;92.21;101453.56;5240095;28;20029;-65
2022/03/29 00:52:08;;;;;;;28.35;17.23;;;;;;;7.25;92.25;101457.16;5243874;28;20029;-65
2022/03/29 00:54:43;;;;;;;31.77;18.35;;;;;;;7.20;92.76;101451.22;5248529;28;20116;-65
2022/03/29 00:57:15;;;;;;;31.00;18.38;;;;;;;7.23;93.07;101451.09;5241316;28;20124;-66
2022/03/29 00:59:47;;;;;;;29.60;18.02;;;;;;;7.13;93.59;101445.38;5244768;28;20033;-65
2022/03/29 01:02:18;;;;;;;31.63;18.55;;;;;;;7.11;93.44;101441.09;5250598;28;20509;-65
2022/03/29 01:04:49;;;;;;;35.38;18.63;;;;;;;7.13;93.23;101437.41;5241194;28;20043;-65
2022/03/29 01:07:20;;;;;;;31.40;18.73;;;;;;;7.16;93.78;101436.41;5274480;28;20861;-65
2022/03/29 01:09:52;;;;;;;29.02;18.20;;;;;;;7.10;93.83;101436.75;5241024;28;20543;-65
2022/03/29 01:12:24;;;;;;;27.60;17.85;;;;;;;7.10;94.25;101431.44;5246489;28;20385;-65
2022/03/29 01:14:56;;;;;;;32.85;19.67;;;;;;;6.96;94.60;101432.13;5256861;28;20047;-65
2022/03/29 01:17:40;;;;;;;32.65;19.73;;;;;;;7.01;94.18;101428.31;5241423;28;20036;-65
2022/03/29 01:20:20;;;;;;;32.08;19.27;;;;;;;6.99;94.92;101424.03;5240179;28;20040;-65
2022/03/29 01:22:52;;;;;;;31.23;19.15;;;;;;;6.90;94.74;101429.81;5243107;28;20024;-65
2022/03/29 01:25:26;;;;;;;31.52;19.98;;;;;;;6.97;94.66;101425.91;5241976;28;20032;-65
2022/03/29 01:27:58;;;;;;;35.43;19.93;;;;;;;6.85;95.39;101422.94;5242123;28;20115;-65
2022/03/29 01:30:30;;;;;;;31.33;19.60;;;;;;;6.85;96.00;101425.59;5240997;28;20375;-65
2022/03/29 01:33:06;;;;;;;33.30;20.30;;;;;;;6.75;96.54;101432.31;5244474;28;20392;-65
2022/03/29 01:35:39;;;;;;;34.97;21.08;;;;;;;6.86;96.36;101422.03;5241532;28;20043;-65
2022/03/29 01:38:11;;;;;;;35.07;20.70;;;;;;;6.77;96.68;101424.25;5238883;28;20100;-65
2022/03/29 01:40:42;;;;;;;31.30;20.33;;;;;;;6.82;96.52;101419.59;5248428;28;20040;-65
2022/03/29 01:43:13;;;;;;;30.80;20.05;;;;;;;6.73;96.77;101417.41;5247314;28;20523;-65
2022/03/29 01:45:44;;;;;;;34.13;22.10;;;;;;;6.79;97.20;101423.28;5240524;28;20033;-65
2022/03/29 01:48:16;;;;;;;34.92;21.30;;;;;;;6.78;97.39;101418.88;5239245;28;20432;-65
2022/03/29 01:50:49;;;;;;;36.10;20.77;;;;;;;6.73;97.69;101410.34;5244206;28;20068;-65
2022/03/29 01:53:24;;;;;;;38.10;21.63;;;;;;;6.61;97.52;101408.28;5240731;28;20033;-65
2022/03/29 01:55:57;;;;;;;34.35;21.90;;;;;;;6.68;97.63;101407.03;5247186;28;20036;-65
2022/03/29 01:58:29;;;;;;;38.53;22.20;;;;;;;6.67;98.25;101397.34;5242109;28;20031;-65
2022/03/29 02:01:01;;;;;;;32.33;20.88;;;;;;;6.58;98.16;101398.72;5240338;28;20040;-65
2022/03/29 02:03:32;;;;;;;35.38;22.42;;;;;;;6.52;98.48;101387.53;5238525;28;20030;-66
2022/03/29 02:06:04;;;;;;;40.72;23.40;;;;;;;6.59;98.95;101389.81;5247256;28;20037;-65
2022/03/29 02:08:35;;;;;;;35.72;22.77;;;;;;;6.57;99.16;101390.81;5243356;28;20025;-65
2022/03/29 02:11:07;;;;;;;38.03;23.50;;;;;;;6.58;99.80;101380.16;5244223;28;20044;-65
2022/03/29 02:13:38;;;;;;;37.50;23.95;;;;;;;6.57;99.20;101382.88;5242225;28;20036;-65
2022/03/29 02:16:10;;;;;;;38.30;23.90;;;;;;;6.48;99.47;101381.53;5239213;28;20062;-65
2022/03/29 02:18:41;;;;;;;37.97;22.63;;;;;;;6.50;99.96;101378.81;5244033;28;20578;-65
2022/03/29 02:21:18;;;;;;;35.95;23.13;;;;;;;6.48;100.00;101377.13;5247949;28;20032;-65
2022/03/29 02:23:50;;;;;;;39.35;23.77;;;;;;;6.43;99.63;101373.81;5243159;28;20487;-65
2022/03/29 02:26:21;;;;;;;41.95;24.30;;;;;;;6.41;100.00;101369.56;5244033;28;20124;-65
2022/03/29 02:28:52;;;;;;;40.05;25.10;;;;;;;6.46;100.00;101360.44;5242855;28;20035;-65
2022/03/29 02:31:23;;;;;;;39.55;23.27;;;;;;;6.41;100.00;101362.44;5240086;28;20140;-65
2022/03/29 02:33:55;;;;;;;43.85;24.52;;;;;;;6.40;100.00;101350.13;5236540;28;20033;-65
2022/03/29 02:36:26;;;;;;;38.22;24.52;;;;;;;6.35;100.00;101351.28;5250725;28;20130;-65
2022/03/29 02:38:57;;;;;;;41.28;25.08;;;;;;;6.38;100.00;101357.28;5243445;28;20113;-65
2022/03/29 02:41:28;;;;;;;45.70;25.58;;;;;;;6.34;100.00;101350.44;5243870;28;20503;-65
2022/03/29 02:44:00;;;;;;;37.95;24.08;;;;;;;6.33;100.00;101346.09;5237772;28;20034;-65
2022/03/29 02:46:33;;;;;;;41.72;25.02;;;;;;;6.32;100.00;101347.00;5241174;28;20425;-65
2022/03/29 02:49:04;;;;;;;42.53;25.73;;;;;;;6.37;100.00;101342.34;5237977;28;20475;-65
2022/03/29 02:51:36;;;;;;;41.65;25.02;;;;;;;6.32;100.00;101324.94;5244452;28;20078;-65
2022/03/29 02:54:08;;;;;;;44.30;26.60;;;;;;;6.36;100.00;101334.47;5240445;28;20060;-65
2022/03/29 02:56:39;;;;;;;41.90;26.98;;;;;;;6.39;100.00;101329.00;5236398;28;20025;-65
2022/03/29 02:59:11;;;;;;;44.83;26.42;;;;;;;6.36;100.00;101329.16;5239478;28;20569;-65
2022/03/29 03:01:42;;;;;;;46.40;28.73;;;;;;;6.33;100.00;101334.59;5240469;28;20180;-65
2022/03/29 03:04:13;;;;;;;41.90;26.05;;;;;;;6.40;100.00;101331.56;5237810;28;20391;-65
2022/03/29 03:06:44;;;;;;;44.00;26.58;;;;;;;6.33;100.00;101319.59;5238360;28;20541;-65
2022/03/29 03:09:16;;;;;;;46.72;27.70;;;;;;;6.33;100.00;101327.53;5240433;28;20044;-65
2022/03/29 03:11:47;;;;;;;50.35;27.85;;;;;;;6.39;100.00;101321.91;5241155;28;20033;-65
2022/03/29 03:14:18;;;;;;;47.70;28.77;;;;;;;6.42;100.00;101319.13;5236614;28;20384;-65
2022/03/29 03:16:50;;;;;;;50.67;28.80;;;;;;;6.44;100.00;101319.00;5242205;28;20056;-65
2022/03/29 03:19:22;;;;;;;48.00;28.88;;;;;;;6.35;100.00;101315.06;5241692;28;20427;-65
2022/03/29 03:21:53;;;;;;;45.70;27.27;;;;;;;6.40;100.00;101312.16;5240129;28;20029;-65
2022/03/29 03:24:24;;;;;;;46.70;28.08;;;;;;;6.41;100.00;101304.13;5240089;28;20029;-65
2022/03/29 03:26:55;;;;;;;45.28;28.58;;;;;;;6.39;100.00;101305.16;5238165;28;20487;-65
2022/03/29 03:29:27;;;;;;;46.97;28.60;;;;;;;6.47;100.00;101308.25;5239279;28;20577;-65
2022/03/29 03:31:58;;;;;;;46.20;27.67;;;;;;;6.48;100.00;101307.31;5241868;28;20549;-65
2022/03/29 03:34:30;;;;;;;50.28;28.65;;;;;;;6.42;100.00;101302.34;5239110;28;20132;-65
2022/03/29 03:37:03;;;;;;;51.25;30.67;;;;;;;6.44;100.00;101297.81;5239972;28;20560;-65
2022/03/29 03:39:37;;;;;;;47.90;28.77;;;;;;;6.52;100.00;101305.34;5240784;28;20103;-65
2022/03/29 03:42:12;;;;;;;49.42;29.88;;;;;;;6.47;100.00;101295.00;5243451;28;20079;-65
2022/03/29 03:44:43;;;;;;;48.13;28.75;;;;;;;6.46;100.00;101299.47;5236959;28;20057;-65
2022/03/29 03:47:14;;;;;;;45.97;29.38;;;;;;;6.40;100.00;101297.09;5239621;28;20025;-65
2022/03/29 03:49:45;;;;;;;50.13;29.92;;;;;;;6.44;100.00;101287.22;5253601;28;20088;-66
2022/03/29 03:52:17;;;;;;;50.55;31.10;;;;;;;6.42;100.00;101295.25;5247913;28;20036;-65
2022/03/29 03:54:48;;;;;;;50.35;30.83;;;;;;;6.37;100.00;101293.78;5252395;28;20029;-65
2022/03/29 03:57:20;;;;;;;55.80;30.48;;;;;;;6.39;100.00;101292.75;5246740;28;20036;-65
2022/03/29 03:59:52;;;;;;;49.58;29.80;;;;;;;6.39;100.00;101294.56;5245566;28;20603;-65
2022/03/29 04:02:23;;;;;;;51.97;30.55;;;;;;;6.29;100.00;101286.22;5244028;28;20071;-65
2022/03/29 04:04:54;;;;;;;57.40;32.88;;;;;;;6.21;100.00;101283.09;5250262;28;20406;-65
2022/03/29 04:07:26;;;;;;;53.53;31.80;;;;;;;6.19;100.00;101280.50;5245476;28;20650;-65
2022/03/29 04:09:57;;;;;;;55.90;33.00;;;;;;;6.13;100.00;101274.69;5240332;28;20037;-65
2022/03/29 04:12:28;;;;;;;51.38;32.28;;;;;;;6.07;100.00;101268.75;5250498;28;20036;-65
2022/03/29 04:15:00;;;;;;;56.72;32.45;;;;;;;6.06;100.00;101269.72;5247051;28;20060;-65
2022/03/29 04:17:31;;;;;;;54.05;34.05;;;;;;;5.99;100.00;101263.00;5244518;28;20124;-65
2022/03/29 04:20:03;;;;;;;57.67;34.15;;;;;;;6.03;100.00;101261.91;5242426;28;20032;-65
2022/03/29 04:22:34;;;;;;;61.15;35.22;;;;;;;5.98;100.00;101261.28;5243433;28;20047;-65
2022/03/29 04:25:06;;;;;;;53.97;32.92;;;;;;;6.02;100.00;101248.72;5244022;28;20037;-65
2022/03/29 04:27:38;;;;;;;60.20;34.60;;;;;;;5.97;100.00;101250.78;5240416;28;20552;-65
2022/03/29 04:30:10;;;;;;;59.58;35.90;;;;;;;5.96;100.00;101249.06;5241830;28;20123;-65
2022/03/29 04:32:41;;;;;;;58.65;34.28;;;;;;;5.91;100.00;101246.63;5243514;28;20033;-65
2022/03/29 04:35:12;;;;;;;57.60;36.05;;;;;;;5.82;100.00;101241.78;5241705;28;20036;-65
2022/03/29 04:37:44;;;;;;;58.42;35.20;;;;;;;5.87;100.00;101235.31;5239816;28;20174;-65
2022/03/29 04:40:15;;;;;;;57.25;35.30;;;;;;;5.85;100.00;101231.03;5245672;28;20036;-65
2022/03/29 04:42:51;;;;;;;59.60;37.42;;;;;;;5.89;100.00;101229.94;5240027;28;20033;-65
2022/03/29 04:45:23;;;;;;;58.28;36.38;;;;;;;5.85;100.00;101239.84;5257059;28;20112;-65
2022/03/29 04:47:54;;;;;;;60.67;35.95;;;;;;;5.86;100.00;101238.03;5252351;28;20069;-65
2022/03/29 04:50:26;;;;;;;60.75;36.63;;;;;;;5.81;100.00;101240.06;5248885;28;20477;-66
2022/03/29 04:52:57;;;;;;;60.22;36.17;;;;;;;5.82;100.00;101233.84;5246074;28;20044;-66
2022/03/29 04:55:28;;;;;;;61.95;37.92;;;;;;;5.78;100.00;101232.28;5246613;28;20472;-65
2022/03/29 04:58:00;;;;;;;62.83;36.53;;;;;;;5.77;100.00;101235.84;5243860;28;20033;-66
2022/03/29 05:00:31;;;;;;;64.85;37.72;;;;;;;5.84;100.00;101235.47;5249995;28;20452;-65
2022/03/29 05:03:03;;;;;;;65.22;38.05;;;;;;;5.75;100.00;101227.97;5252393;28;20033;-65
2022/03/29 05:05:35;;;;;;;58.10;36.92;;;;;;;5.71;100.00;101231.72;5251756;28;20493;-65
2022/03/29 05:08:07;;;;;;;66.28;39.38;;;;;;;5.78;100.00;101224.34;5240464;28;20029;-65
2022/03/29 05:10:38;;;;;;;64.57;37.60;;;;;;;5.78;100.00;101222.53;5250902;28;20396;-65
2022/03/29 05:13:10;;;;;;;61.65;37.45;;;;;;;5.77;100.00;101219.97;5255142;28;20033;-65
2022/03/29 05:15:41;;;;;;;65.00;38.53;;;;;;;5.76;100.00;101224.41;5255053;28;20106;-65
2022/03/29 05:18:12;;;;;;;64.40;38.20;;;;;;;5.81;100.00;101225.03;5258682;28;20037;-65
2022/03/29 05:20:44;;;;;;;65.28;38.30;;;;;;;5.82;100.00;101220.59;5250931;28;20021;-65
2022/03/29 05:23:19;;;;;;;64.95;37.85;;;;;;;5.84;100.00;101211.63;5245629;28;20107;-65
2022/03/29 05:25:50;;;;;;;64.63;38.88;;;;;;;5.85;100.00;101212.50;5246599;28;20115;-65
2022/03/29 05:28:22;;;;;;;64.68;38.42;;;;;;;5.82;100.00;101224.09;5246171;28;20116;-66
2022/03/29 05:30:53;;;;;;;65.38;38.95;;;;;;;5.85;100.00;101223.09;5248478;28;20025;-65
2022/03/29 05:33:25;;;;;;;65.63;39.60;;;;;;;5.85;100.00;101221.31;5246806;28;20055;-65
2022/03/29 05:35:57;;;;;;;67.38;40.38;;;;;;;5.87;100.00;101215.94;5243233;28;20108;-65
2022/03/29 05:38:28;;;;;;;65.35;39.08;;;;;;;5.83;100.00;101220.53;5245677;28;20064;-65
2022/03/29 05:41:00;;;;;;;71.07;40.42;;;;;;;5.85;100.00;101223.94;5247571;28;20037;-65
2022/03/29 05:43:31;;;;;;;69.57;40.83;;;;;;;5.81;100.00;101225.03;5241163;28;20044;-65
2022/03/29 05:48:52;;;;;;;74.60;41.17;;;;;;;5.78;100.00;101206.66;5245622;28;20044;-65
2022/03/29 05:51:24;;;;;;;75.55;42.35;;;;;;;5.75;100.00;101219.19;5242361;28;20029;-65
2022/03/29 05:53:57;;;;;;;72.00;40.97;;;;;;;5.85;100.00;101228.41;5243576;28;20033;-65
2022/03/29 05:56:29;;;;;;;72.82;41.08;;;;;;;5.86;100.00;101225.66;5246895;28;20036;-65
2022/03/29 05:59:00;;;;;;;77.55;42.00;;;;;;;5.92;100.00;101221.84;5243826;28;20266;-65
2022/03/29 06:01:31;;;;;;;72.88;40.72;;;;;;;5.99;100.00;101217.97;5249064;28;20028;-65
2022/03/29 06:04:06;;;;;;;74.55;42.40;;;;;;;5.98;100.00;101229.50;5249314;28;20091;-65
2022/03/29 06:06:40;;;;;;;79.50;41.85;;;;;;;5.91;100.00;101220.13;5243108;28;20028;-65
2022/03/29 06:09:11;;;;;;;77.28;42.53;;;;;;;5.94;100.00;101211.16;5248366;28;20302;-65
2022/03/29 06:11:42;;;;;;;74.47;40.72;;;;;;;6.05;100.00;101222.09;5251538;28;20041;-65
2022/03/29 06:14:14;;;;;;;79.75;42.50;;;;;;;6.05;100.00;101230.91;5251037;28;20068;-65
2022/03/29 06:16:45;;;;;;;78.40;40.90;;;;;;;6.03;100.00;101216.88;5247712;28;20532;-65
2022/03/29 06:19:17;;;;;;;81.97;42.20;;;;;;;6.01;100.00;101217.91;5247239;28;20029;-65
2022/03/29 06:21:48;;;;;;;82.03;43.58;;;;;;;6.08;100.00;101219.31;5242004;28;20033;-65
2022/03/29 06:24:20;;;;;;;88.65;44.40;;;;;;;6.17;100.00;101220.59;5253434;28;20163;-65
2022/03/29 06:26:51;;;;;;;85.88;42.75;;;;;;;6.15;100.00;101225.13;5250040;28;20040;-66
2022/03/29 06:29:22;;;;;;;85.40;44.13;;;;;;;6.27;100.00;101224.47;5253697;28;20029;-66
2022/03/29 06:31:54;;;;;;;84.88;44.03;;;;;;;6.16;100.00;101218.91;5246229;28;20561;-66
2022/03/29 06:34:26;;;;;;;85.53;43.90;;;;;;;6.19;100.00;101216.06;5243802;28;20024;-66
2022/03/29 06:36:58;;;;;;;81.72;44.08;;;;;;;6.21;100.00;101208.91;5241981;28;20451;-66
2022/03/29 06:39:30;;;;;;;80.30;43.78;;;;;;;6.26;100.00;101207.72;5242065;28;20717;-65
2022/03/29 06:42:02;;;;;;;82.25;45.03;;;;;;;6.21;100.00;101215.09;5250179;28;20037;-65
2022/03/29 06:44:34;;;;;;;86.50;44.10;;;;;;;6.25;100.00;101219.28;5247946;28;20458;-65
2022/03/29 06:47:06;;;;;;;87.65;45.70;;;;;;;6.25;100.00;101216.63;5246017;28;20033;-65
2022/03/29 06:49:37;;;;;;;84.40;43.42;;;;;;;6.31;100.00;101214.56;5246558;28;20024;-65
2022/03/29 06:52:09;;;;;;;86.03;43.63;;;;;;;6.31;100.00;101219.88;5244054;28;20376;-65
2022/03/29 06:54:41;;;;;;;85.53;44.75;;;;;;;6.36;100.00;101212.56;5246833;28;20772;-65
2022/03/29 06:57:14;;;;;;;86.20;43.88;;;;;;;6.34;100.00;101214.44;5247495;28;20052;-65
2022/03/29 06:59:46;;;;;;;84.22;44.55;;;;;;;6.37;100.00;101211.63;5248189;28;20036;-65
2022/03/29 07:02:19;;;;;;;83.55;43.08;;;;;;;6.38;100.00;101206.22;5245761;28;20021;-65
2022/03/29 07:04:51;;;;;;;83.32;43.78;;;;;;;6.42;100.00;101209.56;5248739;28;20029;-65
2022/03/29 07:07:22;;;;;;;86.65;44.00;;;;;;;6.37;100.00;101203.69;5247740;28;20033;-66
2022/03/29 07:12:48;;;;;;;88.32;44.03;;;;;;;6.55;100.00;101202.66;5251934;28;20068;-65
2022/03/29 07:15:19;;;;;;;87.97;43.67;;;;;;;6.58;100.00;101199.03;5245802;28;20129;-65
2022/03/29 07:17:51;;;;;;;89.47;44.65;;;;;;;6.60;100.00;101207.75;5245896;28;20028;-65
2022/03/29 07:20:23;;;;;;;88.80;44.40;;;;;;;6.53;100.00;101204.56;5246217;28;20021;-65
2022/03/29 07:22:54;;;;;;;91.25;44.90;;;;;;;6.57;100.00;101203.44;5253394;28;20581;-65
2022/03/29 07:25:27;;;;;;;89.22;46.00;;;;;;;6.54;100.00;101208.94;5254874;28;20494;-65
2022/03/29 07:27:58;;;;;;;88.47;44.50;;;;;;;6.57;100.00;101208.75;5253114;28;20101;-65
2022/03/29 07:30:33;;;;;;;93.03;46.13;;;;;;;6.56;100.00;101214.13;5250896;28;20028;-65
2022/03/29 07:33:04;;;;;;;87.72;44.85;;;;;;;6.56;100.00;101215.00;5252909;28;20029;-65
2022/03/29 07:35:36;;;;;;;95.32;43.63;;;;;;;6.59;100.00;101222.78;5255676;28;20025;-65
2022/03/29 07:38:09;;;;;;;94.35;44.58;;;;;;;6.62;100.00;101209.38;5243169;28;20124;-65
2022/03/29 07:40:42;;;;;;;92.70;44.67;;;;;;;6.73;100.00;101214.09;5250741;28;20037;-66
2022/03/29 07:43:13;;;;;;;93.40;46.63;;;;;;;6.78;100.00;101213.81;5249318;28;21436;-65
2022/03/29 07:45:44;;;;;;;90.50;43.83;;;;;;;6.85;100.00;101221.38;5250619;28;20033;-65
2022/03/29 07:48:16;;;;;;;100.78;46.50;;;;;;;6.82;100.00;101232.13;5249507;28;20029;-65
2022/03/29 07:50:47;;;;;;;87.80;43.72;;;;;;;6.90;100.00;101234.38;5253924;28;20524;-66
2022/03/29 07:53:21;;;;;;;90.60;44.65;;;;;;;6.93;100.00;101238.66;5253124;28;20546;-66
2022/03/29 07:55:53;;;;;;;93.45;44.28;;;;;;;6.73;100.00;101235.31;5252081;28;20033;-66
2022/03/29 07:58:25;;;;;;;86.00;44.50;;;;;;;6.75;100.00;101241.38;5255419;28;20036;-66
2022/03/29 08:00:56;;;;;;;90.88;44.65;;;;;;;6.75;100.00;101233.44;5250277;28;20037;-66
2022/03/29 08:03:32;;;;;;;90.38;42.58;;;;;;;6.81;100.00;101229.59;5255974;28;20032;-66
2022/03/29 08:06:05;;;;;;;93.30;42.78;;;;;;;7.02;100.00;101232.84;5248355;28;20047;-65
2022/03/29 08:08:36;;;;;;;89.90;42.75;;;;;;;7.04;100.00;101228.31;5251681;28;20079;-66
2022/03/29 08:11:11;;;;;;;87.00;43.13;;;;;;;7.15;100.00;101233.88;5254609;28;20037;-65
2022/03/29 08:13:43;;;;;;;93.47;44.67;;;;;;;7.17;100.00;101229.34;5251553;28;20489;-65
2022/03/29 08:16:15;;;;;;;87.15;44.30;;;;;;;7.16;100.00;101218.81;5242626;28;20056;-65
2022/03/29 08:18:46;;;;;;;91.28;43.80;;;;;;;7.26;100.00;101215.53;5246561;28;20657;-64
2022/03/29 08:24:07;;;;;;;89.28;43.38;;;;;;;7.44;100.00;101220.72;5244772;28;20147;-66
2022/03/29 08:26:39;;;;;;;90.07;43.85;;;;;;;7.38;100.00;101211.34;5244927;28;20037;-66
2022/03/29 08:29:11;;;;;;;84.35;43.17;;;;;;;7.36;100.00;101222.97;5251336;28;20033;-66
2022/03/29 08:31:44;;;;;;;91.18;42.22;;;;;;;7.34;100.00;101216.91;5252606;28;20526;-66
2022/03/29 08:34:17;;;;;;;86.13;42.63;;;;;;;7.43;100.00;101214.56;5248883;28;20036;-66
2022/03/29 08:36:49;;;;;;;86.25;42.55;;;;;;;7.50;100.00;101216.88;5257690;28;20033;-66
2022/03/29 08:39:20;;;;;;;89.68;43.78;;;;;;;7.51;100.00;101207.97;5254691;28;20393;-66
2022/03/29 08:42:02;;;;;;;85.88;41.55;;;;;;;7.55;100.00;101213.00;5244848;28;20131;-66
2022/03/29 08:44:34;;;;;;;86.35;41.70;;;;;;;7.52;100.00;101215.00;5252707;28;20037;-66
2022/03/29 08:47:07;;;;;;;87.32;42.45;;;;;;;7.59;100.00;101217.22;5252277;28;20418;-66
2022/03/29 08:49:38;;;;;;;91.45;45.38;;;;;;;7.60;100.00;101224.22;5253079;28;20154;-66
2022/03/29 08:52:11;;;;;;;86.93;41.40;;;;;;;7.63;100.00;101226.72;5250052;28;20041;-66
2022/03/29 08:54:43;;;;;;;78.80;39.70;;;;;;;7.69;100.00;101228.16;5250884;28;20060;-66
2022/03/29 08:57:14;;;;;;;88.25;43.20;;;;;;;7.78;100.00;101224.09;5249078;28;21126;-66
2022/03/29 08:59:45;;;;;;;91.50;43.83;;;;;;;7.78;100.00;101222.28;5250353;28;20083;-66
2022/03/29 09:02:18;;;;;;;95.97;42.78;;;;;;;7.87;100.00;101223.56;5248946;28;20070;-66
2022/03/29 09:05:12;;;;;;;91.25;44.70;;;;;;;7.95;100.00;101215.97;5252474;28;20210;-66
2022/03/29 09:07:58;;;;;;;89.68;43.38;;;;;;;7.95;100.00;101220.44;5248480;28;20162;-66
2022/03/29 09:10:38;;;;;;;89.32;43.70;;;;;;;7.89;99.46;101215.50;5247268;28;20246;-66
2022/03/29 09:13:26;;;;;;;90.07;44.03;;;;;;;7.77;99.78;101215.28;5245901;28;20029;-66
2022/03/29 09:16:01;;;;;;;84.55;41.85;;;;;;;7.89;100.00;101212.84;5242084;28;20053;-66
2022/03/29 09:18:32;;;;;;;;;;;;;;;8.03;99.59;101216.41;5242115;28;20158;-66
2022/03/29 09:21:14;;;;;;;94.05;44.90;;;;;;;7.97;98.82;101211.44;5247919;28;19913;-66
2022/03/29 09:24:06;;;;;;;99.57;43.92;;;;;;;8.02;99.23;101204.06;5249492;28;20030;-66
2022/03/29 09:26:43;;;;;;;91.22;44.03;;;;;;;7.90;98.85;101206.56;5252601;28;20046;-66
2022/03/29 09:29:25;;;;;;;99.55;46.67;;;;;;;7.98;99.26;101217.63;5249045;28;20036;-66
2022/03/29 09:32:09;;;;;;;99.40;44.55;;;;;;;7.87;98.74;101212.94;5249854;28;20064;-66
2022/03/29 09:34:40;;;;;;;99.90;45.95;;;;;;;7.98;99.38;101212.31;5247839;28;20033;-66
2022/03/29 09:37:12;;;;;;;99.60;46.00;;;;;;;7.98;98.65;101210.50;5247398;28;20021;-66
2022/03/29 09:39:48;;;;;;;104.65;48.20;;;;;;;8.04;98.73;101204.81;5244511;28;20036;-66
2022/03/29 09:42:19;;;;;;;99.43;45.85;;;;;;;8.09;98.12;101193.88;5236873;28;20021;-66
2022/03/29 09:44:54;;;;;;;107.85;48.03;;;;;;;8.07;98.22;101194.94;5232799;28;20028;-66
2022/03/29 09:47:27;;;;;;;;;;;;;;;8.29;97.88;101187.38;5238269;28;20052;-66
2022/03/29 09:50:08;;;;;;;100.03;46.03;;;;;;;8.18;97.91;101187.19;5238405;28;20011;-66
2022/03/29 09:52:43;;;;;;;102.28;47.15;;;;;;;8.22;98.75;101189.53;5242014;28;20021;-66
2022/03/29 09:55:15;;;;;;;;;;;;;;;8.43;98.45;101176.75;5249578;28;20651;-66
2022/03/29 09:57:57;;;;;;;103.60;47.53;;;;;;;8.33;97.52;101175.59;5240615;28;19917;-66
2022/03/29 10:00:29;;;;;;;104.00;50.08;;;;;;;8.38;97.21;101177.97;5239852;28;20561;-66
2022/03/29 10:03:02;;;;;;;99.10;45.47;;;;;;;8.37;96.58;101178.94;5276982;28;20029;-66
2022/03/29 10:05:37;;;;;;;97.68;46.08;;;;;;;8.36;97.28;101172.75;5242812;28;20394;-66
2022/03/29 10:11:00;;;;;;;90.10;43.75;;;;;;;8.51;96.60;101157.66;5250320;28;20343;-66
2022/03/29 10:13:32;;;;;;;89.90;44.05;;;;;;;8.67;97.03;101162.91;5247386;28;20060;-66
2022/03/29 10:16:04;;;;;;;101.95;48.17;;;;;;;8.70;96.28;101149.38;5230214;28;20103;-66
2022/03/29 10:18:35;;;;;;;89.50;44.53;;;;;;;8.69;94.71;101153.00;5238634;28;20475;-66
2022/03/29 10:21:10;;;;;;;82.90;42.92;;;;;;;8.80;94.52;101153.19;5240848;28;20037;-66
2022/03/29 10:23:46;;;;;;;85.78;42.47;;;;;;;8.92;95.26;101142.69;5239946;28;20040;-66
2022/03/29 10:26:21;;;;;;;82.38;42.17;;;;;;;8.97;93.77;101148.56;5235486;28;20025;-66
2022/03/29 10:28:52;;;;;;;75.10;41.67;;;;;;;8.93;92.70;101149.72;5244417;28;20490;-66
2022/03/29 10:31:36;;;;;;;77.05;41.50;;;;;;;8.97;93.63;101153.88;5243943;28;20028;-66
2022/03/29 10:34:22;;;;;;;75.97;39.65;;;;;;;8.96;92.72;101146.88;5249575;28;20033;-66
2022/03/29 10:37:17;;;;;;;70.72;38.47;;;;;;;9.15;94.01;101151.84;5244473;28;20144;-66
2022/03/29 10:39:55;;;;;;;69.00;38.20;;;;;;;9.21;93.33;101149.63;5246078;28;20852;-65
2022/03/29 10:42:46;;;;;;;64.07;36.30;;;;;;;9.34;92.94;101146.13;5241198;28;20056;-66
2022/03/29 10:45:23;;;;;;;66.93;37.08;;;;;;;9.41;91.17;101140.31;5245928;28;20557;-66
2022/03/29 10:47:56;;;;;;;63.33;37.17;;;;;;;9.57;91.13;101134.81;5243870;28;20029;-66
2022/03/29 10:50:56;;;;;;;64.55;37.17;;;;;;;9.62;90.35;101135.34;5246905;28;20069;-66
2022/03/29 10:53:32;;;;;;;57.75;36.05;;;;;;;9.66;90.74;101129.81;5248495;28;20098;-66
2022/03/29 10:56:17;;;;;;;62.67;36.80;;;;;;;9.62;89.77;101135.34;5244858;28;20041;-66
2022/03/29 10:59:03;;;;;;;59.58;36.40;;;;;;;9.80;90.36;101130.56;5246932;28;20087;-66
2022/03/29 11:01:42;;;;;;;58.42;36.10;;;;;;;9.77;88.86;101124.59;5243477;28;20476;-66
2022/03/29 11:04:16;;;;;;;58.47;36.20;;;;;;;9.78;87.93;101124.50;5241145;28;20474;-66
2022/03/29 11:07:06;;;;;;;;;;;;;;;10.05;89.86;101120.00;5243799;28;20063;-66
2022/03/29 11:09:38;;;;;;;57.95;33.35;;;;;;;10.14;88.83;101111.38;5249404;28;20465;-66
2022/03/29 11:12:37;;;;;;;54.70;33.53;;;;;;;10.32;89.55;101114.59;5245827;28;20131;-66
2022/03/29 11:15:47;;;;;;;52.67;32.88;;;;;;;10.50;87.04;101099.94;5244136;28;20045;-66
2022/03/29 11:18:37;;;;;;;49.42;32.28;;;;;;;10.53;86.37;101105.06;5244419;28;20045;-66
2022/03/29 11:21:08;;;;;;;53.10;32.50;;;;;;;10.48;84.58;101098.34;5247451;28;20033;-66
2022/03/29 11:23:44;;;;;;;52.88;31.55;;;;;;;10.52;84.47;101103.34;5249469;28;20024;-66
2022/03/29 11:26:16;;;;;;;52.80;31.95;;;;;;;10.69;84.03;101098.59;5238700;28;20037;-66
2022/03/29 11:28:48;;;;;;;56.70;33.55;;;;;;;10.76;83.30;101100.72;5244339;28;20110;-66
2022/03/29 11:31:21;;;;;;;50.67;32.78;;;;;;;10.86;83.43;101108.03;5245688;28;20028;-66
2022/03/29 11:33:55;;;;;;;53.15;32.67;;;;;;;10.92;82.50;101105.75;5241382;28;20579;-66
2022/03/29 11:36:27;;;;;;;51.25;33.25;;;;;;;11.19;82.87;101094.84;5232619;28;20499;-66
2022/03/29 11:38:58;;;;;;;53.35;34.05;;;;;;;11.29;81.06;101091.47;5239864;28;20028;-66
2022/03/29 11:41:33;;;;;;;58.40;36.03;;;;;;;11.30;80.40;101090.53;5244219;28;20096;-66
2022/03/29 11:44:07;;;;;;;55.90;35.58;;;;;;;11.22;80.06;101083.09;5243142;28;20095;-66
2022/03/29 11:46:50;;;;;;;58.10;34.92;;;;;;;11.40;81.51;101077.31;5245947;28;20799;-66
2022/03/29 11:49:26;;;;;;;52.80;34.72;;;;;;;11.35;79.47;101075.84;5244758;28;20052;-66
2022/03/29 11:52:12;;;;;;;52.67;34.95;;;;;;;11.23;79.09;101067.91;5245019;28;20013;-66